createdAt,value
2022-08-29T00:02:26.122Z,70.01
2022-08-29T00:04:53.999Z,70.83
2022-08-29T00:07:23.847Z,70.49
2022-08-29T00:09:51.796Z,70.37
2022-08-29T00:12:19.964Z,70.45
2022-08-29T00:14:47.900Z,70.99
2022-08-29T00:17:15.868Z,71.50
2022-08-29T00:19:43.773Z,71.16
2022-08-29T00:22:11.703Z,70.96
2022-08-29T00:24:40.958Z,71.00
2022-08-29T00:27:08.799Z,71.18
2022-08-29T00:29:36.830Z,71.10
2022-08-29T00:32:05.169Z,71.61
2022-08-29T00:34:33.041Z,71.14
2022-08-29T00:37:00.960Z,71.98
2022-08-29T00:39:29.010Z,71.62
2022-08-29T00:42:02.133Z,71.83
2022-08-29T00:44:29.941Z,72.11
2022-08-29T00:47:00.395Z,72.73
2022-08-29T00:49:35.043Z,72.31
2022-08-29T00:52:08.342Z,72.34
2022-08-29T00:54:37.665Z,72.58
2022-08-29T00:57:07.967Z,73.02
2022-08-29T00:59:39.844Z,72.32
2022-08-29T01:02:11.029Z,72.78
2022-08-29T01:04:40.588Z,73.33
2022-08-29T01:07:10.606Z,73.40
2022-08-29T01:09:40.684Z,73.95
2022-08-29T01:12:18.129Z,73.45
2022-08-29T01:14:51.905Z,73.87
2022-08-29T01:17:22.675Z,73.83
2022-08-29T01:19:57.065Z,74.57
2022-08-29T01:22:52.985Z,74.01
2022-08-29T01:25:25.147Z,74.63
2022-08-29T01:27:59.824Z,74.15
2022-08-29T01:30:27.706Z,74.71
2022-08-29T01:32:57.557Z,74.59
2022-08-29T01:35:25.968Z,74.46
2022-08-29T01:37:53.873Z,75.22
2022-08-29T01:40:30.294Z,74.88
2022-08-29T01:42:58.633Z,75.24
2022-08-29T01:45:26.529Z,75.40
2022-08-29T01:47:54.382Z,75.73
2022-08-29T01:50:22.274Z,76.15
2022-08-29T01:52:50.091Z,75.15
2022-08-29T01:55:18.008Z,76.09
2022-08-29T01:57:48.364Z,75.95
2022-08-29T02:00:18.314Z,75.96
2022-08-29T02:02:46.168Z,75.95
2022-08-29T02:05:14.001Z,75.84
2022-08-29T02:07:41.735Z,76.16
2022-08-29T02:10:10.324Z,76.68
2022-08-29T02:12:38.217Z,76.45
2022-08-29T02:15:08.523Z,75.93
2022-08-29T02:17:36.360Z,76.02
2022-08-29T02:20:07.715Z,75.58
2022-08-29T02:22:35.857Z,75.08
2022-08-29T02:25:24.736Z,74.54
2022-08-29T02:27:53.053Z,74.31
2022-08-29T02:30:23.387Z,73.85
2022-08-29T02:32:51.293Z,74.45
2022-08-29T02:35:19.792Z,74.93
2022-08-29T02:37:48.815Z,74.52
2022-08-29T02:40:16.710Z,74.49
2022-08-29T02:42:44.615Z,75.12
2022-08-29T02:45:12.868Z,75.14
2022-08-29T02:47:42.988Z,74.71
2022-08-29T02:50:11.704Z,74.38
2022-08-29T02:52:39.928Z,74.60
2022-08-29T02:55:09.907Z,75.15
2022-08-29T02:57:38.022Z,75.46
2022-08-29T03:00:08.202Z,75.24
2022-08-29T03:02:38.458Z,74.86
2022-08-29T03:05:08.603Z,75.24
2022-08-29T03:07:36.426Z,74.97
2022-08-29T03:10:07.456Z,74.95
2022-08-29T03:12:35.512Z,74.90
2022-08-29T03:15:03.514Z,74.88
2022-08-29T03:17:31.333Z,73.92
2022-08-29T03:19:59.564Z,74.30
2022-08-29T03:22:29.600Z,74.24
2022-08-29T03:24:57.477Z,74.04
2022-08-29T03:27:25.266Z,73.61
2022-08-29T03:29:53.126Z,74.16
2022-08-29T03:32:21.069Z,73.85
2022-08-29T03:34:48.950Z,74.21
2022-08-29T03:37:16.822Z,74.32
2022-08-29T03:39:46.011Z,73.84
2022-08-29T03:42:14.403Z,73.65
2022-08-29T03:44:42.797Z,74.32
2022-08-29T03:47:10.798Z,74.04
2022-08-29T03:49:38.663Z,74.33
2022-08-29T03:52:09.364Z,73.76
2022-08-29T03:54:37.330Z,73.68
2022-08-29T03:57:06.947Z,73.91
2022-08-29T03:59:35.482Z,74.43
2022-08-29T04:02:03.399Z,73.69
2022-08-29T04:04:48.710Z,74.73
2022-08-29T04:07:17.410Z,74.75
2022-08-29T04:09:45.220Z,75.04
2022-08-29T04:12:14.449Z,75.54
2022-08-29T04:14:42.741Z,75.04
2022-08-29T04:17:12.232Z,75.91
2022-08-29T04:19:40.121Z,75.24
2022-08-29T04:22:08.062Z,75.67
2022-08-29T04:24:36.835Z,75.56
2022-08-29T04:27:04.983Z,76.18
2022-08-29T04:29:38.312Z,76.54
2022-08-29T04:32:06.466Z,76.31
2022-08-29T04:34:34.423Z,76.70
2022-08-29T04:37:02.249Z,76.33
2022-08-29T04:39:30.075Z,76.64
2022-08-29T04:41:58.223Z,77.09
2022-08-29T04:44:26.041Z,76.92
2022-08-29T04:46:55.274Z,76.82
2022-08-29T04:49:23.410Z,77.04
2022-08-29T04:51:53.507Z,76.28
2022-08-29T04:54:21.440Z,76.50
2022-08-29T04:56:49.268Z,77.03
2022-08-29T04:59:19.531Z,77.31
2022-08-29T05:01:48.676Z,77.40
2022-08-29T05:04:18.038Z,77.76
2022-08-29T05:06:45.952Z,77.43
2022-08-29T05:09:13.795Z,77.09
2022-08-29T05:11:41.787Z,77.19
2022-08-29T05:14:09.853Z,77.13
2022-08-29T05:16:38.894Z,76.59
2022-08-29T05:19:09.544Z,77.11
2022-08-29T05:21:40.502Z,77.45
2022-08-29T05:24:11.365Z,76.33
2022-08-29T05:26:41.523Z,77.09
2022-08-29T05:29:11.450Z,77.17
2022-08-29T05:31:41.131Z,76.81
2022-08-29T05:34:31.912Z,76.59
2022-08-29T05:36:59.833Z,75.90
2022-08-29T05:39:27.825Z,75.58
2022-08-29T05:41:56.282Z,75.24
2022-08-29T05:44:24.681Z,76.05
2022-08-29T05:46:52.587Z,75.48
2022-08-29T05:49:20.892Z,75.13
2022-08-29T05:51:49.134Z,75.16
2022-08-29T05:54:18.435Z,75.42
2022-08-29T05:56:46.343Z,75.37
2022-08-29T05:59:14.681Z,75.98
2022-08-29T06:01:42.766Z,74.86
2022-08-29T06:04:11.000Z,75.15
2022-08-29T06:06:41.355Z,75.58
2022-08-29T06:09:09.522Z,75.42
2022-08-29T06:11:38.798Z,75.59
2022-08-29T06:14:06.895Z,74.62
2022-08-29T06:16:35.040Z,74.71
2022-08-29T06:19:02.894Z,74.82
2022-08-29T06:21:31.057Z,73.90
2022-08-29T06:23:59.210Z,75.31
2022-08-29T06:26:27.134Z,75.38
2022-08-29T06:28:56.284Z,75.90
2022-08-29T06:31:27.978Z,76.10
2022-08-29T06:33:58.079Z,76.30
2022-08-29T06:36:26.460Z,76.22
2022-08-29T06:38:56.491Z,76.63
2022-08-29T06:41:24.955Z,76.90
2022-08-29T06:43:53.419Z,76.51
2022-08-29T06:46:25.289Z,76.25
2022-08-29T06:48:54.302Z,76.27
2022-08-29T06:51:22.516Z,76.73
2022-08-29T06:53:50.696Z,76.81
2022-08-29T06:56:19.192Z,76.13
2022-08-29T06:58:47.326Z,78.18
2022-08-29T07:01:17.715Z,78.41
2022-08-29T07:03:47.445Z,77.50
2022-08-29T07:06:18.226Z,76.48
2022-08-29T07:08:55.422Z,76.88
2022-08-29T07:11:25.360Z,77.21
2022-08-29T07:13:53.538Z,77.38
2022-08-29T07:16:23.075Z,77.76
2022-08-29T07:18:52.630Z,79.13
2022-08-29T07:21:22.891Z,80.31
2022-08-29T07:23:51.281Z,81.15
2022-08-29T07:26:22.095Z,81.97
2022-08-29T07:28:52.165Z,82.29
2022-08-29T07:31:20.748Z,82.93
2022-08-29T07:33:59.754Z,84.13
2022-08-29T07:36:34.359Z,84.99
2022-08-29T07:39:04.006Z,84.98
2022-08-29T07:41:32.290Z,86.75
2022-08-29T07:44:00.149Z,87.26
2022-08-29T07:46:28.161Z,87.58
2022-08-29T07:48:56.253Z,85.48
2022-08-29T07:51:27.187Z,84.16
2022-08-29T07:53:57.514Z,84.26
2022-08-29T07:56:27.868Z,82.03
2022-08-29T07:58:56.754Z,80.43
2022-08-29T08:01:25.731Z,79.33
2022-08-29T08:03:54.518Z,80.83
2022-08-29T08:06:27.164Z,81.11
2022-08-29T08:08:57.179Z,80.82
2022-08-29T08:11:26.453Z,80.90
2022-08-29T08:13:54.737Z,81.03
2022-08-29T08:16:29.326Z,80.60
2022-08-29T08:18:57.902Z,80.96
2022-08-29T08:21:27.271Z,79.85
2022-08-29T08:23:56.742Z,79.33
2022-08-29T08:26:25.411Z,77.58
2022-08-29T08:28:55.159Z,76.08
2022-08-29T08:31:24.189Z,75.08
2022-08-29T08:33:52.977Z,75.57
2022-08-29T08:36:23.577Z,74.61
2022-08-29T08:38:52.576Z,73.39
2022-08-29T08:41:32.005Z,73.07
2022-08-29T08:44:03.494Z,73.77
2022-08-29T08:46:38.463Z,75.33
2022-08-29T08:49:11.536Z,75.08
2022-08-29T08:51:44.735Z,73.64
2022-08-29T08:54:19.915Z,73.93
2022-08-29T08:57:01.374Z,73.89
2022-08-29T08:59:39.422Z,74.53
2022-08-29T09:02:18.675Z,73.70
2022-08-29T09:04:59.721Z,72.76
2022-08-29T09:07:45.063Z,72.99
2022-08-29T09:10:26.229Z,74.86
2022-08-29T09:13:01.667Z,74.04
2022-08-29T09:15:34.364Z,73.66
2022-08-29T09:18:05.536Z,74.20
2022-08-29T09:20:35.700Z,74.90
2022-08-29T09:23:07.478Z,73.80
2022-08-29T09:25:36.304Z,73.70
2022-08-29T09:28:08.711Z,72.77
2022-08-29T09:30:38.583Z,74.12
2022-08-29T09:33:09.812Z,73.76
2022-08-29T09:35:41.377Z,73.17
2022-08-29T09:38:11.118Z,73.11
2022-08-29T09:40:49.779Z,73.53
2022-08-29T09:43:26.611Z,73.18
2022-08-29T09:46:13.219Z,72.30
2022-08-29T09:48:43.575Z,71.58
2022-08-29T09:51:21.649Z,70.82
2022-08-29T09:53:50.216Z,70.46
2022-08-29T09:56:22.709Z,70.35
2022-08-29T09:59:02.970Z,68.98
2022-08-29T10:01:39.491Z,68.44
2022-08-29T10:04:09.109Z,68.29
2022-08-29T10:06:45.281Z,67.97
2022-08-29T10:09:28.075Z,66.01
2022-08-29T10:12:00.609Z,65.39
2022-08-29T10:14:35.423Z,66.70
2022-08-29T10:17:20.796Z,66.18
2022-08-29T10:19:49.422Z,65.46
2022-08-29T10:22:34.004Z,66.61
2022-08-29T10:25:06.577Z,65.02
2022-08-29T10:27:43.835Z,65.57
2022-08-29T10:30:16.628Z,64.22
2022-08-29T10:33:08.085Z,63.69
2022-08-29T10:35:41.479Z,63.43
2022-08-29T10:38:18.112Z,62.83
2022-08-29T10:40:48.626Z,64.07
2022-08-29T10:43:31.052Z,64.42
2022-08-29T10:46:15.707Z,64.39
2022-08-29T10:48:59.357Z,64.20
2022-08-29T10:51:34.788Z,63.85
2022-08-29T10:54:12.975Z,63.65
2022-08-29T10:56:45.964Z,63.00
2022-08-29T10:59:20.513Z,62.21
2022-08-29T11:01:55.037Z,59.65
2022-08-29T11:04:28.102Z,58.48
2022-08-29T11:07:02.150Z,57.60
2022-08-29T11:09:34.720Z,58.46
2022-08-29T11:12:12.542Z,56.42
2022-08-29T11:14:50.050Z,58.85
2022-08-29T11:17:22.334Z,58.72
2022-08-29T11:20:01.902Z,58.97
2022-08-29T11:22:34.614Z,58.62
2022-08-29T11:25:10.296Z,58.66
2022-08-29T11:27:53.656Z,57.99
2022-08-29T11:30:24.984Z,58.22
2022-08-29T11:33:09.401Z,58.64
2022-08-29T11:35:47.103Z,55.06
2022-08-29T11:38:45.166Z,55.05
2022-08-29T11:41:27.296Z,52.61
2022-08-29T11:43:59.779Z,51.64
2022-08-29T11:46:39.744Z,52.46
2022-08-29T11:49:36.113Z,53.54
2022-08-29T11:52:21.868Z,52.54
2022-08-29T11:55:24.187Z,51.59
2022-08-29T11:58:03.829Z,51.49
2022-08-29T12:00:51.348Z,52.08
2022-08-29T12:03:53.768Z,52.75
2022-08-29T12:06:37.779Z,52.84
2022-08-29T12:09:43.689Z,54.06
2022-08-29T12:12:31.630Z,53.90
2022-08-29T12:15:00.098Z,54.04
2022-08-29T12:18:01.398Z,52.57
2022-08-29T12:20:41.334Z,52.99
2022-08-29T12:23:21.232Z,54.02
2022-08-29T12:26:09.632Z,54.21
2022-08-29T12:28:46.467Z,55.01
2022-08-29T12:32:02.231Z,54.33
2022-08-29T12:34:59.020Z,52.36
2022-08-29T12:37:54.085Z,52.17
2022-08-29T12:40:45.006Z,52.76
2022-08-29T12:43:26.426Z,51.24
2022-08-29T12:45:56.488Z,51.30
2022-08-29T12:48:27.983Z,51.00
2022-08-29T12:50:55.860Z,51.39
2022-08-29T12:53:26.892Z,51.12
2022-08-29T12:55:58.509Z,50.78
2022-08-29T12:58:39.250Z,51.59
2022-08-29T13:01:11.635Z,51.62
2022-08-29T13:03:39.740Z,51.50
2022-08-29T13:06:18.851Z,51.70
2022-08-29T13:08:50.171Z,51.53
2022-08-29T13:11:23.037Z,51.02
2022-08-29T13:13:51.027Z,51.62
2022-08-29T13:16:27.194Z,51.01
2022-08-29T13:19:10.013Z,49.89
2022-08-29T13:21:39.187Z,50.56
2022-08-29T13:24:12.811Z,48.48
2022-08-29T13:27:05.963Z,50.16
2022-08-29T13:29:38.629Z,50.84
2022-08-29T13:32:12.759Z,52.13
2022-08-29T13:35:00.473Z,52.53
2022-08-29T13:37:31.944Z,53.54
2022-08-29T13:40:31.145Z,52.76
2022-08-29T13:43:02.313Z,53.07
2022-08-29T13:45:30.504Z,52.88
2022-08-29T13:48:03.021Z,52.24
2022-08-29T13:50:32.592Z,52.25
2022-08-29T13:53:00.603Z,51.23
2022-08-29T13:55:29.688Z,50.95
2022-08-29T13:57:58.387Z,51.27
2022-08-29T14:00:32.333Z,51.18
2022-08-29T14:03:05.456Z,51.33
2022-08-29T14:05:35.183Z,51.47
2022-08-29T14:08:03.819Z,49.98
2022-08-29T14:10:31.721Z,50.63
2022-08-29T14:12:59.757Z,49.49
2022-08-29T14:15:29.335Z,49.92
2022-08-29T14:17:57.580Z,48.88
2022-08-29T14:20:26.105Z,49.15
2022-08-29T14:22:54.034Z,48.11
2022-08-29T14:25:22.189Z,47.71
2022-08-29T14:27:51.022Z,47.85
2022-08-29T14:30:21.208Z,47.85
2022-08-29T14:33:11.537Z,47.42
2022-08-29T14:35:42.525Z,46.89
2022-08-29T14:38:11.766Z,46.45
2022-08-29T14:40:39.770Z,47.40
2022-08-29T14:43:10.944Z,47.73
2022-08-29T14:45:39.176Z,47.00
2022-08-29T14:48:07.397Z,46.33
2022-08-29T14:50:36.958Z,45.86
2022-08-29T14:53:05.243Z,46.12
2022-08-29T14:55:33.826Z,46.62
2022-08-29T14:58:01.822Z,46.05
2022-08-29T15:00:33.939Z,46.57
2022-08-29T15:03:02.109Z,46.41
2022-08-29T15:05:30.239Z,47.11
2022-08-29T15:08:03.175Z,47.56
2022-08-29T15:10:34.187Z,47.26
2022-08-29T15:13:02.092Z,45.95
2022-08-29T15:15:30.316Z,44.99
2022-08-29T15:17:59.800Z,44.81
2022-08-29T15:20:39.311Z,44.59
2022-08-29T15:23:10.083Z,44.22
2022-08-29T15:25:45.047Z,44.14
2022-08-29T15:28:20.158Z,44.36
2022-08-29T15:30:48.102Z,43.39
2022-08-29T15:33:16.379Z,43.46
2022-08-29T15:35:44.499Z,43.61
2022-08-29T15:38:16.319Z,44.09
2022-08-29T15:40:44.832Z,42.80
2022-08-29T15:43:13.477Z,42.19
2022-08-29T15:45:41.432Z,42.14
2022-08-29T15:48:11.459Z,41.99
2022-08-29T15:50:39.687Z,41.88
2022-08-29T15:53:07.568Z,42.37
2022-08-29T15:55:39.113Z,42.95
2022-08-29T15:58:10.304Z,42.94
2022-08-29T16:00:38.477Z,42.80
2022-08-29T16:03:07.677Z,42.33
2022-08-29T16:05:38.164Z,42.62
2022-08-29T16:08:06.314Z,43.18
2022-08-29T16:10:36.285Z,41.73
2022-08-29T16:13:05.039Z,41.39
2022-08-29T16:15:33.944Z,40.81
2022-08-29T16:18:03.891Z,41.06
2022-08-29T16:20:32.526Z,40.64
2022-08-29T16:23:01.016Z,39.56
2022-08-29T16:25:30.990Z,38.50
2022-08-29T16:28:01.348Z,37.53
2022-08-29T16:30:31.561Z,36.10
2022-08-29T16:32:59.951Z,35.83
2022-08-29T16:35:28.420Z,35.34
2022-08-29T16:38:02.155Z,34.83
2022-08-29T16:40:31.398Z,35.23
2022-08-29T16:43:01.785Z,35.96
2022-08-29T16:45:29.822Z,36.68
2022-08-29T16:47:57.899Z,37.13
2022-08-29T16:50:26.838Z,35.87
2022-08-29T16:52:55.320Z,35.70
2022-08-29T16:55:24.859Z,35.50
2022-08-29T16:58:09.983Z,34.53
2022-08-29T17:00:39.928Z,35.24
2022-08-29T17:03:07.838Z,34.75
2022-08-29T17:05:35.923Z,35.09
2022-08-29T17:08:03.312Z,35.04
2022-08-29T17:10:30.117Z,34.37
2022-08-29T17:12:56.995Z,35.05
2022-08-29T17:15:23.862Z,35.70
2022-08-29T17:17:53.184Z,37.53
2022-08-29T17:20:21.333Z,38.82
2022-08-29T17:22:50.025Z,39.53
2022-08-29T17:25:20.591Z,40.13
2022-08-29T17:28:07.505Z,41.10
2022-08-29T17:30:37.405Z,41.86
2022-08-29T17:33:08.174Z,42.54
2022-08-29T17:35:36.106Z,43.01
2022-08-29T17:38:04.116Z,43.58
2022-08-29T17:40:32.537Z,43.99
2022-08-29T17:43:01.776Z,44.60
2022-08-29T17:45:30.120Z,44.59
2022-08-29T17:47:58.347Z,45.20
2022-08-29T17:50:27.680Z,45.33
2022-08-29T17:52:55.582Z,45.70
2022-08-29T17:55:23.529Z,46.18
2022-08-29T17:57:58.024Z,46.41
2022-08-29T18:00:26.627Z,47.00
2022-08-29T18:02:54.628Z,46.69
2022-08-29T18:05:22.525Z,47.26
2022-08-29T18:07:52.060Z,47.34
2022-08-29T18:10:22.055Z,48.03
2022-08-29T18:12:50.624Z,48.00
2022-08-29T18:15:18.488Z,48.46
2022-08-29T18:17:46.414Z,48.76
2022-08-29T18:20:19.333Z,48.84
2022-08-29T18:22:50.994Z,49.68
2022-08-29T18:25:22.443Z,49.98
2022-08-29T18:27:51.115Z,50.53
2022-08-29T18:30:22.549Z,51.05
2022-08-29T18:32:50.435Z,51.73
2022-08-29T18:35:19.114Z,51.97
2022-08-29T18:37:47.080Z,52.39
2022-08-29T18:40:15.285Z,53.09
2022-08-29T18:42:44.549Z,53.40
2022-08-29T18:45:13.289Z,53.63
2022-08-29T18:47:41.237Z,54.15
2022-08-29T18:50:27.403Z,54.27
2022-08-29T18:52:56.587Z,55.05
2022-08-29T18:55:25.106Z,56.00
2022-08-29T18:57:54.940Z,56.35
2022-08-29T19:00:24.925Z,57.27
2022-08-29T19:02:53.295Z,57.67
2022-08-29T19:05:22.082Z,57.89
2022-08-29T19:07:49.898Z,58.26
2022-08-29T19:10:18.149Z,58.85
2022-08-29T19:12:46.778Z,59.30
2022-08-29T19:15:17.638Z,59.46
2022-08-29T19:17:45.516Z,60.42
2022-08-29T19:20:33.731Z,59.89
2022-08-29T19:23:01.932Z,61.10
2022-08-29T19:25:30.048Z,61.03
2022-08-29T19:27:58.415Z,61.63
2022-08-29T19:30:28.284Z,61.78
2022-08-29T19:32:56.177Z,62.24
2022-08-29T19:35:25.200Z,62.82
2022-08-29T19:37:53.954Z,62.80
2022-08-29T19:40:24.302Z,63.37
2022-08-29T19:42:53.956Z,63.24
2022-08-29T19:45:21.985Z,64.64
2022-08-29T19:47:52.202Z,64.02
2022-08-29T19:50:23.576Z,64.57
2022-08-29T19:52:52.309Z,65.58
2022-08-29T19:55:23.113Z,65.48
2022-08-29T19:57:52.496Z,66.04
2022-08-29T20:00:24.181Z,66.42
2022-08-29T20:02:53.917Z,66.47
2022-08-29T20:05:22.217Z,67.05
2022-08-29T20:07:51.196Z,67.62
2022-08-29T20:10:22.349Z,67.51
2022-08-29T20:12:51.197Z,67.77
2022-08-29T20:15:20.385Z,68.33
2022-08-29T20:17:48.498Z,68.38
2022-08-29T20:20:21.003Z,68.65
2022-08-29T20:22:49.408Z,68.79
2022-08-29T20:25:18.826Z,69.83
2022-08-29T20:27:48.046Z,70.11
2022-08-29T20:30:20.888Z,70.36
2022-08-29T20:32:50.218Z,70.23
2022-08-29T20:35:34.941Z,70.61
2022-08-29T20:38:02.780Z,70.99
2022-08-29T20:40:30.923Z,71.36
2022-08-29T20:42:58.970Z,71.80
2022-08-29T20:45:26.912Z,71.94
2022-08-29T20:47:54.778Z,72.38
2022-08-29T20:50:24.005Z,72.54
2022-08-29T20:52:53.838Z,72.99
2022-08-29T20:55:22.830Z,73.29
2022-08-29T20:57:50.780Z,73.81
2022-08-29T21:00:19.676Z,74.19
2022-08-29T21:03:05.643Z,74.33
2022-08-29T21:05:44.725Z,75.05
2022-08-29T21:08:15.185Z,75.14
2022-08-29T21:10:43.655Z,74.99
2022-08-29T21:13:11.612Z,75.17
2022-08-29T21:15:41.433Z,75.35
2022-08-29T21:18:11.057Z,75.43
2022-08-29T21:20:52.317Z,75.31
2022-08-29T21:23:23.274Z,75.69
2022-08-29T21:25:53.941Z,75.34
2022-08-29T21:28:22.282Z,76.22
2022-08-29T21:30:50.342Z,76.48
2022-08-29T21:33:18.408Z,76.95
2022-08-29T21:35:49.995Z,77.34
2022-08-29T21:38:19.283Z,77.56
2022-08-29T21:40:51.034Z,77.45
2022-08-29T21:43:19.821Z,77.73
2022-08-29T21:45:48.011Z,78.04
2022-08-29T21:48:17.725Z,78.10
2022-08-29T21:50:47.051Z,78.33
2022-08-29T21:53:15.416Z,79.04
2022-08-29T21:55:43.417Z,79.50
2022-08-29T21:58:11.292Z,79.06
2022-08-29T22:00:41.845Z,79.38
2022-08-29T22:03:12.385Z,79.55
2022-08-29T22:05:43.815Z,79.31
2022-08-29T22:08:14.236Z,79.95
2022-08-29T22:10:43.123Z,79.92
2022-08-29T22:13:10.992Z,80.23
2022-08-29T22:15:56.471Z,80.59
2022-08-29T22:18:24.364Z,80.99
2022-08-29T22:20:55.503Z,80.80
2022-08-29T22:23:25.430Z,81.04
2022-08-29T22:25:53.795Z,80.83
2022-08-29T22:28:21.600Z,81.17
2022-08-29T22:30:50.420Z,81.07
2022-08-29T22:33:18.450Z,81.35
2022-08-29T22:35:46.806Z,81.91
2022-08-29T22:38:14.707Z,82.29
2022-08-29T22:40:45.461Z,82.21
2022-08-29T22:43:13.531Z,82.01
2022-08-29T22:45:41.691Z,81.79
2022-08-29T22:48:09.899Z,82.63
2022-08-29T22:50:39.504Z,82.62
2022-08-29T22:53:07.271Z,83.16
2022-08-29T22:55:35.213Z,83.33
2022-08-29T22:58:04.773Z,83.30
2022-08-29T23:00:32.613Z,83.26
2022-08-29T23:03:02.110Z,83.51
2022-08-29T23:05:31.198Z,85.07
2022-08-29T23:07:59.081Z,84.33
2022-08-29T23:10:27.075Z,84.64
2022-08-29T23:12:54.913Z,84.41
2022-08-29T23:15:24.216Z,84.43
2022-08-29T23:17:51.989Z,85.90
2022-08-29T23:20:19.984Z,86.23
2022-08-29T23:22:48.659Z,86.32
2022-08-29T23:25:17.812Z,85.92
2022-08-29T23:27:45.724Z,87.46
2022-08-29T23:30:15.360Z,87.41
2022-08-29T23:32:44.535Z,87.35
2022-08-29T23:35:12.608Z,87.01
2022-08-29T23:37:40.542Z,87.73
2022-08-29T23:40:09.561Z,87.61
2022-08-29T23:42:37.909Z,88.15
2022-08-29T23:45:06.715Z,89.07
2022-08-29T23:47:36.005Z,88.17
2022-08-29T23:50:06.311Z,89.43
2022-08-29T23:52:34.214Z,88.37
2022-08-29T23:55:02.562Z,89.45
2022-08-29T23:57:30.426Z,89.99
